METAR Data

Data at: 2212 UTC 26 Feb 2020

METAR for:KRKD (Rockland/Knox Cnty, ME, US)
Text:KRKD 262156Z AUTO 00000KT 10SM OVC075 04/02 A3003 RMK AO2 SLP169 T00440017
Temperature: 4.4°C ( 40°F)
Dewpoint: 1.7°C ( 35°F) [RH = 83%]
Pressure (altimeter):30.03 inches Hg (1017.0 mb) [Sea level pressure: 1016.9 mb]
Winds:calm
Visibility:10 or more sm (16+ km)
Ceiling:7500 feet AGL
Clouds: overcast cloud deck at 7500 feet AGL
QC Flag:automated observation with no human augmentation